Time;durP1;ratioP1;P1;durP2;ratioP2;P2;SDS_P1;SDS_P2;PMS_P1;PMS_P2;Temp;Humidity;BMP_temperature;BMP_pressure;BME280_temperature;BME280_humidity;BME280_pressure;Samples;Min_cycle;Max_cycle;Signal;HPM_P1;HPM_P2
2022/02/25 00:01:44;;;;;;;2.27;1.57;;;;;;;;;;5037377;27;20503;-74
2022/02/25 00:04:12;;;;;;;5.23;2.47;;;;;;;;;;5037767;27;20859;-74
2022/02/25 00:06:40;;;;;;;2.57;0.90;;;;;;;;;;5128897;27;20812;-74
2022/02/25 00:09:08;;;;;;;14.50;2.17;;;;;;;;;;5138221;27;20849;-75
2022/02/25 00:11:37;;;;;;;6.20;2.50;;;;;;;;;;5138591;27;20637;-75
2022/02/25 00:14:04;;;;;;;3.23;1.43;;;;;;;;;;5137766;27;20572;-74
2022/02/25 00:16:32;;;;;;;2.90;1.60;;;;;;;;;;5138440;27;20838;-74
2022/02/25 00:19:02;;;;;;;2.50;1.50;;;;;;;;;;5138554;27;20454;-74
2022/02/25 00:21:30;;;;;;;5.43;1.37;;;;;;;;;;5137592;27;20475;-74
2022/02/25 00:23:58;;;;;;;1.40;1.00;;;;;;;;;;5138131;27;20450;-74
2022/02/25 00:26:31;;;;;;;6.40;2.90;;;;;;;;;;5137776;27;20477;-74
2022/02/25 00:29:04;;;;;;;9.27;2.80;;;;;;;;;;5137441;27;20497;-74
2022/02/25 00:31:32;;;;;;;4.60;2.10;;;;;;;;;;5138845;27;20522;-74
2022/02/25 00:34:00;;;;;;;10.23;1.67;;;;;;;;;;5137713;27;20511;-74
2022/02/25 00:36:27;;;;;;;7.40;2.73;;;;;;;;;;5137697;27;20665;-74
2022/02/25 00:38:55;;;;;;;5.10;2.47;;;;;;;;;;5137559;27;20453;-74
2022/02/25 00:41:23;;;;;;;3.63;1.70;;;;;;;;;;5137031;27;20450;-74
2022/02/25 00:43:51;;;;;;;10.93;3.03;;;;;;;;;;5138202;27;20788;-74
2022/02/25 00:46:20;;;;;;;4.63;2.30;;;;;;;;;;5137091;27;20473;-74
2022/02/25 00:48:49;;;;;;;5.30;2.53;;;;;;;;;;5137022;27;20464;-74
2022/02/25 00:51:18;;;;;;;6.90;1.40;;;;;;;;;;5136882;27;20481;-74
2022/02/25 00:53:45;;;;;;;6.33;2.70;;;;;;;;;;5136502;27;20474;-74
2022/02/25 00:56:13;;;;;;;5.23;2.37;;;;;;;;;;5141311;27;20523;-75
2022/02/25 00:58:41;;;;;;;4.53;2.13;;;;;;;;;;5143980;27;20453;-75
2022/02/25 01:01:09;;;;;;;5.70;2.00;;;;;;;;;;5144238;27;20522;-74
2022/02/25 01:03:38;;;;;;;2.20;1.13;;;;;;;;;;5143860;27;20457;-75
2022/02/25 01:06:06;;;;;;;2.83;1.33;;;;;;;;;;5143150;27;20457;-75
2022/02/25 01:08:34;;;;;;;3.37;1.63;;;;;;;;;;5143753;27;20548;-74
2022/02/25 01:11:02;;;;;;;6.47;1.83;;;;;;;;;;5143803;27;20460;-75
2022/02/25 01:13:29;;;;;;;2.70;1.70;;;;;;;;;;5143531;27;20453;-75
2022/02/25 01:15:57;;;;;;;4.37;2.07;;;;;;;;;;5144089;27;20462;-75
2022/02/25 01:18:25;;;;;;;3.13;1.20;;;;;;;;;;5144002;27;20453;-75
2022/02/25 01:21:00;;;;;;;12.93;1.83;;;;;;;;;;5143853;27;20567;-75
2022/02/25 01:23:28;;;;;;;4.10;1.43;;;;;;;;;;5144110;27;20456;-75
2022/02/25 01:25:55;;;;;;;6.80;2.30;;;;;;;;;;5144219;27;20476;-75
2022/02/25 01:28:23;;;;;;;5.57;1.00;;;;;;;;;;5144063;27;20462;-75
2022/02/25 01:30:51;;;;;;;3.27;1.57;;;;;;;;;;5144476;27;20468;-75
2022/02/25 01:33:19;;;;;;;2.30;1.03;;;;;;;;;;5145378;27;20453;-75
2022/02/25 01:35:47;;;;;;;3.60;1.90;;;;;;;;;;5143657;27;20480;-75
2022/02/25 01:38:16;;;;;;;4.53;1.73;;;;;;;;;;5144423;27;20695;-74
2022/02/25 01:40:43;;;;;;;4.07;1.57;;;;;;;;;;5144044;27;20735;-75
2022/02/25 01:43:11;;;;;;;3.13;1.83;;;;;;;;;;5143908;27;20460;-75
2022/02/25 01:45:39;;;;;;;5.83;1.93;;;;;;;;;;5144029;27;20500;-75
2022/02/25 01:48:09;;;;;;;2.40;1.17;;;;;;;;;;5143865;27;20464;-75
2022/02/25 01:50:37;;;;;;;6.23;1.80;;;;;;;;;;5144517;27;20462;-75
2022/02/25 01:53:06;;;;;;;4.50;1.83;;;;;;;;;;5143606;27;20796;-75
2022/02/25 01:55:35;;;;;;;3.47;2.00;;;;;;;;;;5143329;27;20932;-75
2022/02/25 01:58:04;;;;;;;4.10;2.47;;;;;;;;;;5144182;27;20864;-75
2022/02/25 02:00:32;;;;;;;3.17;2.07;;;;;;;;;;5143436;27;20444;-75
2022/02/25 02:02:59;;;;;;;5.80;2.13;;;;;;;;;;5143663;27;20453;-75
2022/02/25 02:05:27;;;;;;;10.10;2.33;;;;;;;;;;5143444;27;20465;-75
2022/02/25 02:07:55;;;;;;;2.30;1.50;;;;;;;;;;5140357;27;20742;-75
2022/02/25 02:10:22;;;;;;;2.90;1.63;;;;;;;;;;5140349;27;20881;-74
2022/02/25 02:12:52;;;;;;;2.77;1.07;;;;;;;;;;5141273;27;20812;-75
2022/02/25 02:15:20;;;;;;;4.13;2.73;;;;;;;;;;5140142;27;20532;-75
2022/02/25 02:17:48;;;;;;;5.83;2.70;;;;;;;;;;5140669;27;20461;-75
2022/02/25 02:20:15;;;;;;;2.07;1.37;;;;;;;;;;5141107;27;20503;-75
2022/02/25 02:22:44;;;;;;;5.03;1.70;;;;;;;;;;5141006;27;20465;-75
2022/02/25 02:25:12;;;;;;;16.50;2.50;;;;;;;;;;5140437;27;20446;-75
2022/02/25 02:30:28;;;;;;;3.77;1.70;;;;;;;;;;5140152;27;20445;-75
2022/02/25 02:32:56;;;;;;;11.70;2.03;;;;;;;;;;5141214;27;20465;-74
2022/02/25 02:35:23;;;;;;;3.07;1.23;;;;;;;;;;5139766;27;20813;-75
2022/02/25 02:37:52;;;;;;;13.80;1.80;;;;;;;;;;5140752;27;20468;-75
2022/02/25 02:40:20;;;;;;;8.43;2.00;;;;;;;;;;5140283;27;20968;-75
2022/02/25 02:42:48;;;;;;;5.33;1.70;;;;;;;;;;5139829;27;20756;-75
2022/02/25 02:45:16;;;;;;;6.10;1.90;;;;;;;;;;5140289;27;20735;-75
2022/02/25 02:47:44;;;;;;;5.90;2.20;;;;;;;;;;5139854;27;20457;-75
2022/02/25 02:50:12;;;;;;;6.07;1.70;;;;;;;;;;5139693;27;20460;-75
2022/02/25 02:52:41;;;;;;;5.00;1.73;;;;;;;;;;5139753;27;20900;-75
2022/02/25 02:55:10;;;;;;;9.47;2.23;;;;;;;;;;5139377;27;20492;-74
2022/02/25 02:57:39;;;;;;;4.27;1.33;;;;;;;;;;5139355;27;20724;-75
2022/02/25 03:00:07;;;;;;;9.27;3.27;;;;;;;;;;5139954;27;20853;-74
2022/02/25 03:02:35;;;;;;;5.77;2.20;;;;;;;;;;5139004;27;20753;-75
2022/02/25 03:05:03;;;;;;;4.23;1.33;;;;;;;;;;5137836;27;20542;-75
2022/02/25 03:07:30;;;;;;;19.73;2.87;;;;;;;;;;5138529;27;20741;-75
2022/02/25 03:10:01;;;;;;;1.90;1.10;;;;;;;;;;5139156;27;20462;-75
2022/02/25 03:12:30;;;;;;;4.43;1.30;;;;;;;;;;5139424;27;20809;-75
2022/02/25 03:15:01;;;;;;;9.73;1.50;;;;;;;;;;5139568;27;20481;-75
2022/02/25 03:17:29;;;;;;;1.60;0.90;;;;;;;;;;5040091;27;20834;-75
2022/02/25 03:19:56;;;;;;;4.70;1.67;;;;;;;;;;5035164;27;20466;-75
2022/02/25 03:22:25;;;;;;;6.50;2.57;;;;;;;;;;5038708;27;20567;-74
2022/02/25 03:24:53;;;;;;;1.83;1.13;;;;;;;;;;5038037;27;20875;-75
2022/02/25 03:27:25;;;;;;;5.90;1.50;;;;;;;;;;5038110;27;20571;-75
2022/02/25 03:29:54;;;;;;;11.10;2.00;;;;;;;;;;5037023;27;20473;-75
2022/02/25 03:32:22;;;;;;;1.80;1.10;;;;;;;;;;5037890;27;20462;-75
2022/02/25 03:34:50;;;;;;;4.50;1.80;;;;;;;;;;5040546;27;20490;-74
2022/02/25 03:37:18;;;;;;;6.47;2.33;;;;;;;;;;5036639;27;20449;-75
2022/02/25 03:39:45;;;;;;;8.43;1.27;;;;;;;;;;5036883;27;20481;-74
2022/02/25 03:42:13;;;;;;;5.40;1.93;;;;;;;;;;5037238;27;20478;-74
2022/02/25 03:44:43;;;;;;;4.90;1.73;;;;;;;;;;5036806;27;20463;-75
2022/02/25 03:47:12;;;;;;;3.57;1.93;;;;;;;;;;5036899;27;20882;-74
2022/02/25 03:49:40;;;;;;;4.90;1.27;;;;;;;;;;5036421;27;20454;-75
2022/02/25 03:52:11;;;;;;;5.03;0.97;;;;;;;;;;5036946;27;20500;-75
2022/02/25 03:54:39;;;;;;;5.00;1.77;;;;;;;;;;5037430;27;20490;-74
2022/02/25 03:57:07;;;;;;;2.50;1.47;;;;;;;;;;5037128;27;20466;-74
2022/02/25 03:59:34;;;;;;;6.23;1.30;;;;;;;;;;5040347;27;20473;-75
2022/02/25 04:02:02;;;;;;;2.20;0.93;;;;;;;;;;5037059;27;20525;-75
2022/02/25 04:04:32;;;;;;;4.47;1.43;;;;;;;;;;5037155;27;20479;-75
2022/02/25 04:06:59;;;;;;;4.93;2.10;;;;;;;;;;5036803;27;20464;-74
2022/02/25 04:09:27;;;;;;;5.63;0.83;;;;;;;;;;5034153;27;20471;-74
2022/02/25 04:11:55;;;;;;;7.63;1.87;;;;;;;;;;5036418;27;20545;-74
2022/02/25 04:14:24;;;;;;;9.20;1.53;;;;;;;;;;5034085;27;20523;-74
2022/02/25 04:16:53;;;;;;;4.27;2.00;;;;;;;;;;5034590;27;20488;-74
2022/02/25 04:19:23;;;;;;;9.93;2.07;;;;;;;;;;5034280;27;20458;-74
2022/02/25 04:25:30;;;;;;;3.77;1.10;;;;;;;;;;5035317;27;20538;-74
2022/02/25 04:27:58;;;;;;;2.80;1.20;;;;;;;;;;5034876;27;20864;-73
2022/02/25 04:30:28;;;;;;;4.70;1.10;;;;;;;;;;5033529;27;20461;-75
2022/02/25 04:32:56;;;;;;;4.90;1.53;;;;;;;;;;5037770;27;20467;-74
2022/02/25 04:35:31;;;;;;;3.00;1.03;;;;;;;;;;5037661;27;20482;-74
2022/02/25 04:38:07;;;;;;;8.20;1.13;;;;;;;;;;5037486;27;20490;-74
2022/02/25 04:40:37;;;;;;;4.00;1.20;;;;;;;;;;5038107;27;20466;-75
2022/02/25 04:43:07;;;;;;;3.70;0.93;;;;;;;;;;5036389;27;20473;-75
2022/02/25 04:45:35;;;;;;;4.27;1.27;;;;;;;;;;5037197;27;20459;-75
2022/02/25 04:48:04;;;;;;;3.83;1.17;;;;;;;;;;5036969;27;20512;-74
2022/02/25 04:50:33;;;;;;;6.50;1.63;;;;;;;;;;5037565;27;20447;-74
2022/02/25 04:53:01;;;;;;;6.40;1.77;;;;;;;;;;5037715;27;20458;-75
2022/02/25 04:55:37;;;;;;;8.67;2.30;;;;;;;;;;5037723;27;20490;-74
2022/02/25 04:58:32;;;;;;;2.77;1.17;;;;;;;;;;5042166;27;20834;-74
2022/02/25 05:01:00;;;;;;;4.20;1.13;;;;;;;;;;5038111;27;20454;-74
2022/02/25 05:03:29;;;;;;;6.83;1.77;;;;;;;;;;5038807;27;20466;-74
2022/02/25 05:06:03;;;;;;;3.70;1.43;;;;;;;;;;5038798;27;20965;-74
2022/02/25 05:08:31;;;;;;;3.17;1.30;;;;;;;;;;5038004;27;20578;-74
2022/02/25 05:11:10;;;;;;;2.87;1.50;;;;;;;;;;5035812;27;20469;-74
2022/02/25 05:13:53;;;;;;;7.00;2.20;;;;;;;;;;5037581;27;20548;-74
2022/02/25 05:22:07;;;;;;;8.73;2.10;;;;;;;;;;5036725;27;20475;-74
2022/02/25 05:24:37;;;;;;;3.47;1.03;;;;;;;;;;5036715;27;20494;-74
2022/02/25 05:27:08;;;;;;;6.07;1.50;;;;;;;;;;5036389;27;20458;-74
2022/02/25 05:29:38;;;;;;;2.10;0.97;;;;;;;;;;5039899;27;20466;-73
2022/02/25 05:32:11;;;;;;;3.03;1.70;;;;;;;;;;5034888;27;20736;-74
2022/02/25 05:34:39;;;;;;;5.20;1.33;;;;;;;;;;5032246;27;20470;-74
2022/02/25 05:37:08;;;;;;;4.60;1.30;;;;;;;;;;5035392;27;20494;-74
2022/02/25 05:39:36;;;;;;;7.73;2.03;;;;;;;;;;5034876;27;20790;-74
2022/02/25 05:42:05;;;;;;;6.60;1.77;;;;;;;;;;5037557;27;20450;-74
2022/02/25 05:44:34;;;;;;;5.17;1.93;;;;;;;;;;5140272;27;20891;-73
2022/02/25 05:47:04;;;;;;;1.70;1.00;;;;;;;;;;5140885;27;20465;-73
2022/02/25 05:49:32;;;;;;;9.17;2.63;;;;;;;;;;5140960;27;20463;-73
2022/02/25 05:52:02;;;;;;;4.00;2.20;;;;;;;;;;5071617;27;20483;-75
2022/02/25 05:54:33;;;;;;;5.43;2.40;;;;;;;;;;5020515;27;20736;-75
2022/02/25 05:57:01;;;;;;;6.30;1.53;;;;;;;;;;5029851;27;20489;-75
2022/02/25 05:59:28;;;;;;;2.10;1.03;;;;;;;;;;5037634;27;20607;-75
2022/02/25 06:01:56;;;;;;;6.23;1.60;;;;;;;;;;5028727;27;20529;-76
2022/02/25 06:04:29;;;;;;;5.13;2.77;;;;;;;;;;5038305;27;20467;-76
2022/02/25 06:07:00;;;;;;;3.20;2.10;;;;;;;;;;5025796;27;20725;-75
2022/02/25 06:09:28;;;;;;;2.43;1.50;;;;;;;;;;5020437;27;20470;-74
2022/02/25 06:11:58;;;;;;;4.53;2.00;;;;;;;;;;5015981;28;20474;-74
2022/02/25 06:14:27;;;;;;;4.13;1.33;;;;;;;;;;5034168;27;20874;-74
2022/02/25 06:16:54;;;;;;;7.17;2.50;;;;;;;;;;5034128;27;20494;-74
2022/02/25 06:19:22;;;;;;;4.97;1.90;;;;;;;;;;5038279;27;20514;-74
2022/02/25 06:21:52;;;;;;;2.37;1.20;;;;;;;;;;5036566;27;20598;-75
2022/02/25 06:24:20;;;;;;;3.70;1.37;;;;;;;;;;5032893;27;20471;-75
2022/02/25 06:26:50;;;;;;;7.70;1.63;;;;;;;;;;5025062;27;20740;-75
2022/02/25 06:29:21;;;;;;;5.03;1.67;;;;;;;;;;5037925;27;20459;-75
2022/02/25 06:31:50;;;;;;;4.83;2.27;;;;;;;;;;5030928;27;20478;-75
2022/02/25 06:34:21;;;;;;;6.97;3.43;;;;;;;;;;5016297;27;20489;-74
2022/02/25 06:36:49;;;;;;;4.43;2.13;;;;;;;;;;5021960;28;20490;-75
2022/02/25 06:39:18;;;;;;;9.50;2.30;;;;;;;;;;5018594;27;20463;-75
2022/02/25 06:41:47;;;;;;;8.90;2.33;;;;;;;;;;5018340;28;20467;-75
2022/02/25 06:44:16;;;;;;;3.60;1.77;;;;;;;;;;5036298;27;20463;-74
2022/02/25 06:46:44;;;;;;;8.73;2.33;;;;;;;;;;5026085;27;20474;-75
2022/02/25 06:49:13;;;;;;;9.80;2.87;;;;;;;;;;5033514;27;20569;-76
2022/02/25 06:51:41;;;;;;;2.80;2.13;;;;;;;;;;5033673;27;20454;-75
2022/02/25 06:54:11;;;;;;;6.13;1.80;;;;;;;;;;5032213;27;20465;-74
2022/02/25 06:56:43;;;;;;;5.47;2.50;;;;;;;;;;5032947;27;20504;-75
2022/02/25 06:59:11;;;;;;;4.20;1.97;;;;;;;;;;5032736;27;20480;-75
2022/02/25 07:01:38;;;;;;;15.27;6.37;;;;;;;;;;5030994;27;20841;-75
2022/02/25 07:04:06;;;;;;;14.50;2.23;;;;;;;;;;5032003;27;20553;-74
2022/02/25 07:06:38;;;;;;;4.07;1.83;;;;;;;;;;5031851;27;20443;-75
2022/02/25 07:09:05;;;;;;;7.37;2.00;;;;;;;;;;5033674;27;20721;-75
2022/02/25 07:11:36;;;;;;;8.90;2.10;;;;;;;;;;5032777;27;20574;-75
2022/02/25 07:14:05;;;;;;;2.20;1.13;;;;;;;;;;5031330;27;20765;-75
2022/02/25 07:16:33;;;;;;;6.83;1.90;;;;;;;;;;5029987;27;20494;-75
2022/02/25 07:19:01;;;;;;;8.23;2.10;;;;;;;;;;5031619;27;20465;-75
2022/02/25 07:21:29;;;;;;;4.83;1.87;;;;;;;;;;5030784;27;20462;-76
2022/02/25 07:23:57;;;;;;;9.87;2.20;;;;;;;;;;5030337;27;20485;-74
2022/02/25 07:26:24;;;;;;;7.87;2.03;;;;;;;;;;5032384;27;20454;-74
2022/02/25 07:28:55;;;;;;;2.90;1.43;;;;;;;;;;5035978;27;20459;-75
2022/02/25 07:31:28;;;;;;;5.27;1.53;;;;;;;;;;5036488;27;20449;-75
2022/02/25 07:33:56;;;;;;;8.20;2.20;;;;;;;;;;5036193;27;20450;-74
2022/02/25 07:36:24;;;;;;;6.33;1.63;;;;;;;;;;5034508;27;20950;-76
2022/02/25 07:38:52;;;;;;;3.33;1.23;;;;;;;;;;5034302;27;20784;-75
2022/02/25 07:41:20;;;;;;;4.43;3.27;;;;;;;;;;5034905;27;20489;-75
2022/02/25 07:43:48;;;;;;;7.37;1.77;;;;;;;;;;5035753;27;20466;-75
2022/02/25 07:46:16;;;;;;;7.60;3.13;;;;;;;;;;5040525;27;20886;-75
2022/02/25 07:48:46;;;;;;;4.13;1.33;;;;;;;;;;5118537;27;21159;-75
2022/02/25 07:51:18;;;;;;;6.57;2.33;;;;;;;;;;5122427;27;20470;-75
2022/02/25 07:53:48;;;;;;;7.53;2.30;;;;;;;;;;5136666;27;20742;-75
2022/02/25 07:56:19;;;;;;;4.57;1.70;;;;;;;;;;5136921;27;20488;-76
2022/02/25 07:58:56;;;;;;;3.50;1.73;;;;;;;;;;5138762;27;20450;-75
2022/02/25 08:01:39;;;;;;;12.07;2.00;;;;;;;;;;5136830;27;20465;-76
2022/02/25 08:04:08;;;;;;;3.70;1.73;;;;;;;;;;5137823;27;20446;-76
2022/02/25 08:06:55;;;;;;;8.00;2.53;;;;;;;;;;5137628;27;20497;-74
2022/02/25 08:09:26;;;;;;;5.93;2.33;;;;;;;;;;5138256;27;20472;-76
2022/02/25 08:12:03;;;;;;;6.57;2.60;;;;;;;;;;5135500;27;20453;-76
2022/02/25 08:14:37;;;;;;;8.20;3.10;;;;;;;;;;5133284;27;20453;-75
2022/02/25 08:17:06;;;;;;;8.27;2.23;;;;;;;;;;5134817;27;20488;-74
2022/02/25 08:19:36;;;;;;;10.87;2.40;;;;;;;;;;5134096;27;20456;-75
2022/02/25 08:22:07;;;;;;;6.53;3.00;;;;;;;;;;5133541;27;20465;-74
2022/02/25 08:24:35;;;;;;;9.60;3.07;;;;;;;;;;5135241;27;20476;-75
2022/02/25 08:27:04;;;;;;;7.37;2.50;;;;;;;;;;5134488;27;20458;-76
2022/02/25 08:29:34;;;;;;;4.73;2.57;;;;;;;;;;5134911;27;20468;-75
2022/02/25 08:32:05;;;;;;;3.97;2.50;;;;;;;;;;5132270;27;20446;-74
2022/02/25 08:34:33;;;;;;;12.70;3.33;;;;;;;;;;5133924;27;20867;-75
2022/02/25 08:37:08;;;;;;;11.87;3.10;;;;;;;;;;5121057;27;20489;-75
2022/02/25 08:39:43;;;;;;;10.53;3.40;;;;;;;;;;5056732;27;20453;-75
2022/02/25 08:42:15;;;;;;;4.07;1.73;;;;;;;;;;5051921;27;20492;-74
2022/02/25 08:44:45;;;;;;;5.40;2.67;;;;;;;;;;5104946;27;20450;-75
2022/02/25 08:47:13;;;;;;;6.80;3.00;;;;;;;;;;5046689;28;20558;-75
2022/02/25 08:49:41;;;;;;;7.13;2.03;;;;;;;;;;5022554;27;20468;-74
2022/02/25 08:52:10;;;;;;;3.53;1.97;;;;;;;;;;5033519;27;20822;-74
2022/02/25 08:54:40;;;;;;;6.20;3.50;;;;;;;;;;5021843;27;20478;-74
2022/02/25 08:57:08;;;;;;;11.37;2.43;;;;;;;;;;5022186;28;20552;-75
2022/02/25 08:59:37;;;;;;;2.27;1.97;;;;;;;;;;5021266;27;20463;-75
2022/02/25 09:02:06;;;;;;;4.20;1.57;;;;;;;;;;5015888;28;20467;-74
2022/02/25 09:04:37;;;;;;;12.87;2.30;;;;;;;;;;5046177;27;20462;-75
2022/02/25 09:07:06;;;;;;;3.73;1.57;;;;;;;;;;5029743;27;20841;-77
2022/02/25 09:09:41;;;;;;;8.90;3.83;;;;;;;;;;5034963;27;20552;-76
2022/02/25 09:12:18;;;;;;;11.97;3.00;;;;;;;;;;5036779;28;20466;-76
2022/02/25 09:14:51;;;;;;;12.60;3.73;;;;;;;;;;5036995;27;20492;-75
2022/02/25 09:17:44;;;;;;;6.37;1.83;;;;;;;;;;5096661;27;20482;-75
2022/02/25 09:20:18;;;;;;;9.30;2.40;;;;;;;;;;5146166;27;20879;-75
2022/02/25 09:22:46;;;;;;;7.33;2.93;;;;;;;;;;5136130;27;20748;-74
2022/02/25 09:25:21;;;;;;;4.40;1.70;;;;;;;;;;5130052;27;20457;-75
2022/02/25 09:28:01;;;;;;;3.57;1.40;;;;;;;;;;5061581;27;20530;-74
2022/02/25 09:30:35;;;;;;;6.70;2.20;;;;;;;;;;5069398;27;20446;-75
2022/02/25 09:33:17;;;;;;;8.23;2.40;;;;;;;;;;5125315;27;20544;-75
2022/02/25 09:36:02;;;;;;;6.60;2.97;;;;;;;;;;5103552;27;20457;-74
2022/02/25 09:38:36;;;;;;;4.83;2.40;;;;;;;;;;5135768;27;20455;-73
2022/02/25 09:41:14;;;;;;;8.50;1.97;;;;;;;;;;5133573;27;20458;-74
2022/02/25 09:43:50;;;;;;;5.43;2.50;;;;;;;;;;5139190;27;20473;-75
2022/02/25 09:46:53;;;;;;;6.10;2.67;;;;;;;;;;5138002;27;20465;-76
2022/02/25 09:49:24;;;;;;;5.20;3.00;;;;;;;;;;5047030;28;20704;-75
2022/02/25 09:51:59;;;;;;;8.83;2.43;;;;;;;;;;5034896;27;20462;-75
2022/02/25 09:57:15;;;;;;;8.60;2.87;;;;;;;;;;5065830;27;20586;-76
2022/02/25 09:59:56;;;;;;;3.93;1.77;;;;;;;;;;5046902;27;20457;-75
2022/02/25 10:02:52;;;;;;;4.67;2.30;;;;;;;;;;5023002;27;21032;-76
2022/02/25 10:08:43;;;;;;;10.90;2.10;;;;;;;;;;5138899;27;20537;-77
2022/02/25 10:11:24;;;;;;;3.37;2.00;;;;;;;;;;5122662;27;20461;-74
2022/02/25 10:14:20;;;;;;;5.90;3.73;;;;;;;;;;5042114;27;20461;-75
2022/02/25 10:20:03;;;;;;;2.83;2.20;;;;;;;;;;5132187;27;21042;-75
2022/02/25 10:22:35;;;;;;;9.90;3.30;;;;;;;;;;5039826;27;20545;-76
2022/02/25 10:25:09;;;;;;;3.87;1.57;;;;;;;;;;5082950;28;20451;-74
2022/02/25 10:30:24;;;;;;;5.83;2.60;;;;;;;;;;5032211;27;20573;-75
2022/02/25 10:35:40;;;;;;;4.70;1.80;;;;;;;;;;5020814;27;20451;-75
2022/02/25 10:38:33;;;;;;;4.77;3.03;;;;;;;;;;5039557;27;20493;-74
2022/02/25 10:41:05;;;;;;;3.97;1.80;;;;;;;;;;5039932;27;20564;-74
2022/02/25 10:43:34;;;;;;;3.10;1.90;;;;;;;;;;5083549;27;20549;-74
2022/02/25 10:46:26;;;;;;;9.10;2.70;;;;;;;;;;5127040;27;20524;-74
2022/02/25 10:49:14;;;;;;;3.70;1.43;;;;;;;;;;5042656;27;20887;-75
2022/02/25 10:51:42;;;;;;;5.23;2.20;;;;;;;;;;5057269;27;20448;-75
2022/02/25 10:54:15;;;;;;;5.23;2.10;;;;;;;;;;5042557;27;20955;-75
2022/02/25 10:56:47;;;;;;;14.33;3.50;;;;;;;;;;5037893;27;20851;-75
2022/02/25 10:59:16;;;;;;;7.70;2.10;;;;;;;;;;5087550;27;20554;-75
2022/02/25 11:01:45;;;;;;;3.17;1.90;;;;;;;;;;5043230;27;20476;-74
2022/02/25 11:04:14;;;;;;;11.73;2.60;;;;;;;;;;5051100;27;20501;-74
2022/02/25 11:06:44;;;;;;;3.83;1.57;;;;;;;;;;5054274;27;20529;-74
2022/02/25 11:09:14;;;;;;;4.70;2.50;;;;;;;;;;5052383;27;20877;-75
2022/02/25 11:11:42;;;;;;;7.23;2.10;;;;;;;;;;5052965;27;20442;-74
2022/02/25 11:14:12;;;;;;;6.10;2.00;;;;;;;;;;5052592;27;20465;-73
2022/02/25 11:16:47;;;;;;;6.57;2.40;;;;;;;;;;5051753;27;20457;-73
2022/02/25 11:19:19;;;;;;;6.33;3.07;;;;;;;;;;5060826;27;20468;-73
2022/02/25 11:21:48;;;;;;;4.13;1.87;;;;;;;;;;5053368;27;20830;-75
2022/02/25 11:24:19;;;;;;;2.70;1.43;;;;;;;;;;5053964;27;20957;-74
2022/02/25 11:26:49;;;;;;;10.73;2.70;;;;;;;;;;5046006;27;20476;-74
2022/02/25 11:32:03;;;;;;;3.67;1.20;;;;;;;;;;5058511;27;20500;-75
2022/02/25 11:34:32;;;;;;;9.60;3.07;;;;;;;;;;5051279;27;20556;-75
2022/02/25 11:37:10;;;;;;;5.90;1.87;;;;;;;;;;5049011;27;20539;-74
2022/02/25 11:39:49;;;;;;;7.50;2.27;;;;;;;;;;5050276;27;20492;-76
2022/02/25 11:42:35;;;;;;;3.63;1.70;;;;;;;;;;5053531;27;20458;-77
2022/02/25 11:45:22;;;;;;;6.03;1.97;;;;;;;;;;5046396;27;20465;-76
2022/02/25 11:47:58;;;;;;;6.83;1.83;;;;;;;;;;5053313;27;20513;-76
2022/02/25 11:50:43;;;;;;;9.23;1.93;;;;;;;;;;5052530;27;21036;-75
2022/02/25 11:53:21;;;;;;;7.73;3.10;;;;;;;;;;5050701;27;20461;-75
2022/02/25 11:55:58;;;;;;;4.90;2.20;;;;;;;;;;5050847;27;20453;-76
2022/02/25 11:58:51;;;;;;;6.20;2.03;;;;;;;;;;5051431;27;20473;-76
2022/02/25 12:01:26;;;;;;;3.30;1.73;;;;;;;;;;5049819;27;20492;-76
2022/02/25 12:07:35;;;;;;;4.27;1.10;;;;;;;;;;5049847;27;20429;-76
2022/02/25 12:10:17;;;;;;;2.63;1.20;;;;;;;;;;5050202;27;20525;-74
2022/02/25 12:12:47;;;;;;;6.83;2.00;;;;;;;;;;5050339;27;20453;-73
2022/02/25 12:15:18;;;;;;;4.50;1.80;;;;;;;;;;5050677;27;20489;-75
2022/02/25 12:17:59;;;;;;;21.03;3.10;;;;;;;;;;5050210;27;20493;-74
2022/02/25 12:20:28;;;;;;;5.97;2.70;;;;;;;;;;5041945;27;20761;-76
2022/02/25 12:23:00;;;;;;;4.70;2.10;;;;;;;;;;5054061;27;20465;-76
2022/02/25 12:25:49;;;;;;;3.20;1.40;;;;;;;;;;5042570;27;20462;-76
2022/02/25 12:28:54;;;;;;;4.33;1.83;;;;;;;;;;5049001;27;20449;-76
2022/02/25 12:31:25;;;;;;;12.73;2.17;;;;;;;;;;4994291;28;20487;-74
2022/02/25 12:34:31;;;;;;;7.73;1.80;;;;;;;;;;5022752;27;20455;-76
2022/02/25 12:37:18;;;;;;;2.90;1.20;;;;;;;;;;5032538;28;20462;-76
2022/02/25 12:39:46;;;;;;;9.90;1.97;;;;;;;;;;5064617;28;20448;-74
2022/02/25 12:42:42;;;;;;;6.20;1.70;;;;;;;;;;5059493;27;20838;-74
2022/02/25 12:45:17;;;;;;;3.50;1.40;;;;;;;;;;5063298;27;20461;-75
2022/02/25 12:47:48;;;;;;;3.90;1.23;;;;;;;;;;5057519;27;20470;-76
2022/02/25 12:50:17;;;;;;;2.80;2.43;;;;;;;;;;5063417;27;20440;-74
2022/02/25 12:55:30;;;;;;;2.80;0.80;;;;;;;;;;5048817;27;20459;-73
2022/02/25 12:58:10;;;;;;;3.50;1.33;;;;;;;;;;5049263;27;20481;-74
2022/02/25 13:01:03;;;;;;;2.17;1.73;;;;;;;;;;5048120;27;22273;-75
2022/02/25 13:03:32;;;;;;;2.10;0.90;;;;;;;;;;5068458;27;20473;-74
2022/02/25 13:06:26;;;;;;;1.60;0.70;;;;;;;;;;5054896;27;20497;-75
2022/02/25 13:08:56;;;;;;;4.30;0.80;;;;;;;;;;5048448;27;20458;-76
2022/02/25 13:11:35;;;;;;;1.47;0.70;;;;;;;;;;5047156;27;20819;-73
2022/02/25 13:14:19;;;;;;;2.47;0.80;;;;;;;;;;5050509;27;20530;-73
2022/02/25 13:17:13;;;;;;;4.03;1.30;;;;;;;;;;5049769;27;20472;-74
2022/02/25 13:19:44;;;;;;;1.67;0.90;;;;;;;;;;5050206;27;20457;-74
2022/02/25 13:25:13;;;;;;;8.17;1.30;;;;;;;;;;5050330;27;20468;-75
2022/02/25 13:28:02;;;;;;;2.80;1.50;;;;;;;;;;5032551;28;20443;-75
2022/02/25 13:30:33;;;;;;;7.70;1.03;;;;;;;;;;5031241;28;20459;-75
2022/02/25 13:33:05;;;;;;;3.60;1.20;;;;;;;;;;5030550;28;20450;-75
2022/02/25 13:35:39;;;;;;;1.80;0.70;;;;;;;;;;5035712;27;20804;-74
2022/02/25 13:38:17;;;;;;;10.93;1.00;;;;;;;;;;5050675;27;20909;-74
2022/02/25 13:40:51;;;;;;;6.40;1.00;;;;;;;;;;5054543;27;20485;-74
2022/02/25 13:43:23;;;;;;;5.07;0.73;;;;;;;;;;5054071;27;20453;-74
2022/02/25 13:54:56;;;;;;;3.63;1.17;;;;;;;;;;5039830;27;20450;-75
2022/02/25 13:57:26;;;;;;;2.87;0.70;;;;;;;;;;5054221;27;20445;-73
2022/02/25 13:59:57;;;;;;;2.97;1.20;;;;;;;;;;5034810;28;20553;-75
2022/02/25 14:02:36;;;;;;;3.57;1.00;;;;;;;;;;5040939;27;20544;-75
2022/02/25 14:07:56;;;;;;;1.67;1.03;;;;;;;;;;5045932;27;20442;-74
2022/02/25 14:13:19;;;;;;;5.20;1.93;;;;;;;;;;5037450;27;20507;-76
2022/02/25 14:16:06;;;;;;;2.60;1.77;;;;;;;;;;5048036;27;20449;-75
2022/02/25 14:18:47;;;;;;;14.50;1.20;;;;;;;;;;5055159;27;20493;-75
2022/02/25 14:24:41;;;;;;;2.17;1.00;;;;;;;;;;5032239;27;20518;-75
2022/02/25 14:30:13;;;;;;;2.90;0.90;;;;;;;;;;5056179;27;20458;-75
2022/02/25 14:32:48;;;;;;;3.10;1.10;;;;;;;;;;5051182;27;20773;-74
2022/02/25 14:35:30;;;;;;;10.93;1.67;;;;;;;;;;5052028;27;20468;-75
2022/02/25 14:38:19;;;;;;;2.60;1.70;;;;;;;;;;5049024;27;20550;-76
2022/02/25 14:41:05;;;;;;;3.83;1.60;;;;;;;;;;5033298;28;20455;-75
2022/02/25 14:44:00;;;;;;;;;;;;;;;;;;;;;
2022/02/25 14:46:35;;;;;;;8.63;1.83;;;;;;;;;;5041985;27;20893;-75
2022/02/25 14:49:06;;;;;;;3.70;1.27;;;;;;;;;;5044690;27;20597;-76
2022/02/25 14:51:50;;;;;;;3.43;1.10;;;;;;;;;;5042593;27;20451;-75
2022/02/25 14:54:20;;;;;;;5.57;1.67;;;;;;;;;;5046117;27;20529;-75
2022/02/25 14:56:50;;;;;;;6.47;1.77;;;;;;;;;;5044083;27;20446;-74
2022/02/25 14:59:26;;;;;;;8.70;1.23;;;;;;;;;;5045136;27;20481;-75
2022/02/25 15:01:56;;;;;;;4.60;1.23;;;;;;;;;;5038820;27;20850;-74
2022/02/25 15:04:30;;;;;;;4.93;1.80;;;;;;;;;;5036621;27;20462;-75
2022/02/25 15:07:06;;;;;;;3.30;1.57;;;;;;;;;;5048765;27;20545;-74
2022/02/25 15:09:36;;;;;;;2.00;1.00;;;;;;;;;;5035441;27;21041;-75
2022/02/25 15:12:13;;;;;;;4.30;1.10;;;;;;;;;;5043044;27;20474;-74
2022/02/25 15:14:49;;;;;;;6.20;1.73;;;;;;;;;;5040287;27;20504;-75
2022/02/25 15:17:20;;;;;;;3.30;1.20;;;;;;;;;;5040583;27;20531;-75
2022/02/25 15:19:53;;;;;;;1.80;1.00;;;;;;;;;;5051707;27;21279;-76
2022/02/25 15:22:24;;;;;;;7.10;2.63;;;;;;;;;;5039317;27;20889;-76
2022/02/25 15:24:52;;;;;;;14.50;3.20;;;;;;;;;;5047162;27;20527;-73
2022/02/25 15:27:22;;;;;;;2.40;1.07;;;;;;;;;;5046658;27;20473;-75
2022/02/25 15:29:55;;;;;;;3.50;0.97;;;;;;;;;;5038483;28;20447;-74
2022/02/25 15:32:24;;;;;;;3.37;1.20;;;;;;;;;;5031504;28;20473;-75
2022/02/25 15:34:53;;;;;;;1.57;0.80;;;;;;;;;;5037933;27;20511;-75
2022/02/25 15:40:09;;;;;;;1.50;0.60;;;;;;;;;;5050082;27;20546;-75
2022/02/25 15:42:42;;;;;;;6.10;2.23;;;;;;;;;;5050007;27;20521;-75
2022/02/25 15:45:21;;;;;;;2.30;1.17;;;;;;;;;;5041080;27;20455;-74
2022/02/25 15:51:03;;;;;;;4.13;1.20;;;;;;;;;;5049732;27;20537;-75
2022/02/25 15:56:33;;;;;;;1.77;0.83;;;;;;;;;;5041491;27;20435;-76
2022/02/25 15:59:13;;;;;;;3.10;1.03;;;;;;;;;;5045811;27;20538;-74
2022/02/25 16:01:50;;;;;;;7.17;0.90;;;;;;;;;;5048449;27;20532;-75
2022/02/25 16:04:37;;;;;;;6.13;1.47;;;;;;;;;;5045536;27;20461;-74
2022/02/25 16:07:22;;;;;;;7.63;1.67;;;;;;;;;;5051466;27;20490;-75
2022/02/25 16:10:13;;;;;;;2.10;0.80;;;;;;;;;;5046313;27;20477;-75
2022/02/25 16:12:46;;;;;;;3.50;1.00;;;;;;;;;;5039315;27;20553;-75
2022/02/25 16:15:25;;;;;;;2.60;0.60;;;;;;;;;;5045542;27;20458;-74
2022/02/25 16:17:54;;;;;;;6.97;1.00;;;;;;;;;;5047083;27;20471;-74
2022/02/25 16:20:26;;;;;;;3.20;0.90;;;;;;;;;;5050773;27;21075;-74
2022/02/25 16:22:56;;;;;;;5.90;1.40;;;;;;;;;;5047313;27;20460;-75